Time;durP1;ratioP1;P1;durP2;ratioP2;P2;SDS_P1;SDS_P2;PMS_P1;PMS_P2;Temp;Humidity;BMP_temperature;BMP_pressure;BME280_temperature;BME280_humidity;BME280_pressure;Samples;Min_cycle;Max_cycle;Signal;HPM_P1;HPM_P2
2022/03/05 00:00:16;;;;;;;46.15;23.13;;;;;;;;;;5032380;28;20025;-76
2022/03/05 00:02:42;;;;;;;44.08;22.75;;;;;;;;;;5032228;28;20095;-78
2022/03/05 00:05:08;;;;;;;43.58;21.05;;;;;;;;;;5032063;28;20108;-75
2022/03/05 00:07:34;;;;;;;50.08;22.42;;;;;;;;;;5032439;28;20021;-76
2022/03/05 00:10:00;;;;;;;38.85;19.65;;;;;;;;;;5031958;28;20030;-75
2022/03/05 00:12:26;;;;;;;44.55;21.73;;;;;;;;;;5032209;28;20040;-73
2022/03/05 00:14:52;;;;;;;40.08;21.17;;;;;;;;;;5032182;28;20021;-74
2022/03/05 00:17:18;;;;;;;41.75;21.33;;;;;;;;;;5031999;28;20466;-75
2022/03/05 00:19:44;;;;;;;45.22;22.25;;;;;;;;;;5031741;28;20018;-75
2022/03/05 00:22:11;;;;;;;43.13;21.90;;;;;;;;;;5032132;28;20382;-74
2022/03/05 00:24:37;;;;;;;43.40;21.27;;;;;;;;;;5032025;28;20022;-74
2022/03/05 00:27:04;;;;;;;45.63;21.90;;;;;;;;;;5032217;28;20108;-74
2022/03/05 00:29:30;;;;;;;40.05;22.23;;;;;;;;;;5032074;28;20390;-74
2022/03/05 00:31:56;;;;;;;43.10;22.88;;;;;;;;;;5031874;28;20018;-74
2022/03/05 00:34:23;;;;;;;49.70;22.13;;;;;;;;;;5031938;28;20032;-74
2022/03/05 00:36:49;;;;;;;46.78;23.45;;;;;;;;;;5031979;28;20124;-74
2022/03/05 00:39:15;;;;;;;41.25;21.08;;;;;;;;;;5031865;28;20025;-74
2022/03/05 00:41:41;;;;;;;50.25;24.10;;;;;;;;;;5032072;28;20053;-74
2022/03/05 00:44:07;;;;;;;47.50;23.33;;;;;;;;;;5033979;28;20029;-74
2022/03/05 00:46:33;;;;;;;48.47;23.17;;;;;;;;;;5035557;28;20471;-73
2022/03/05 00:48:59;;;;;;;49.30;23.42;;;;;;;;;;5035550;28;20386;-73
2022/03/05 00:51:25;;;;;;;48.15;25.58;;;;;;;;;;5035460;28;20088;-73
2022/03/05 00:53:51;;;;;;;41.55;22.92;;;;;;;;;;5035390;28;20021;-74
2022/03/05 00:56:17;;;;;;;44.88;20.13;;;;;;;;;;5035375;28;20585;-74
2022/03/05 00:58:43;;;;;;;41.38;20.38;;;;;;;;;;5035301;28;20084;-77
2022/03/05 01:01:09;;;;;;;42.70;21.08;;;;;;;;;;5033683;28;20053;-73
2022/03/05 01:03:35;;;;;;;44.00;20.90;;;;;;;;;;5035305;28;20087;-75
2022/03/05 01:06:01;;;;;;;39.95;20.92;;;;;;;;;;5035037;28;20038;-74
2022/03/05 01:08:28;;;;;;;40.80;20.60;;;;;;;;;;5035161;28;20221;-75
2022/03/05 01:10:54;;;;;;;36.67;19.63;;;;;;;;;;5034413;28;20144;-74
2022/03/05 01:13:20;;;;;;;39.45;20.38;;;;;;;;;;5034729;28;20033;-74
2022/03/05 01:15:46;;;;;;;36.00;18.55;;;;;;;;;;5034379;28;20497;-74
2022/03/05 01:18:12;;;;;;;38.83;19.58;;;;;;;;;;5034494;28;20036;-73
2022/03/05 01:20:38;;;;;;;37.05;20.08;;;;;;;;;;5025431;28;20037;-74
2022/03/05 01:23:04;;;;;;;44.60;19.90;;;;;;;;;;5031889;28;20021;-74
2022/03/05 01:25:30;;;;;;;41.63;21.00;;;;;;;;;;5033500;28;20063;-74
2022/03/05 01:27:56;;;;;;;43.83;21.17;;;;;;;;;;5031949;28;20528;-73
2022/03/05 01:30:22;;;;;;;39.17;20.50;;;;;;;;;;5013404;28;20030;-73
2022/03/05 01:32:48;;;;;;;42.85;20.40;;;;;;;;;;5014241;28;20034;-74
2022/03/05 01:35:14;;;;;;;40.00;19.88;;;;;;;;;;5038233;28;20045;-74
2022/03/05 01:37:40;;;;;;;40.95;19.65;;;;;;;;;;5028372;28;20049;-74
2022/03/05 01:40:06;;;;;;;42.58;20.58;;;;;;;;;;5029219;28;20029;-74
2022/03/05 01:42:32;;;;;;;41.42;19.35;;;;;;;;;;5013731;28;20017;-75
2022/03/05 01:44:58;;;;;;;38.08;19.60;;;;;;;;;;5013310;28;20584;-75
2022/03/05 01:47:24;;;;;;;40.80;18.77;;;;;;;;;;5023614;28;20026;-75
2022/03/05 01:49:50;;;;;;;37.42;19.83;;;;;;;;;;5013548;28;20021;-75
2022/03/05 01:52:16;;;;;;;41.30;18.63;;;;;;;;;;5028691;28;20030;-75
2022/03/05 01:54:42;;;;;;;38.05;18.73;;;;;;;;;;5013500;28;20022;-75
2022/03/05 01:57:10;;;;;;;38.25;18.88;;;;;;;;;;5013395;28;20086;-74
2022/03/05 01:59:37;;;;;;;38.65;19.60;;;;;;;;;;5012960;28;20471;-74
2022/03/05 02:02:03;;;;;;;37.47;17.65;;;;;;;;;;5013018;28;20030;-74
2022/03/05 02:04:29;;;;;;;36.00;17.15;;;;;;;;;;5015828;28;20029;-75
2022/03/05 02:06:55;;;;;;;34.38;17.58;;;;;;;;;;5016415;28;20429;-77
2022/03/05 02:09:21;;;;;;;34.85;17.65;;;;;;;;;;5026507;28;20026;-75
2022/03/05 02:11:48;;;;;;;32.17;16.92;;;;;;;;;;5033004;28;20100;-74
2022/03/05 02:14:20;;;;;;;35.53;17.50;;;;;;;;;;5031734;28;20013;-75
2022/03/05 02:16:47;;;;;;;33.13;18.02;;;;;;;;;;5030930;28;20091;-75
2022/03/05 02:19:13;;;;;;;30.00;16.95;;;;;;;;;;5032613;28;20017;-73
2022/03/05 02:21:39;;;;;;;35.90;16.95;;;;;;;;;;5032740;28;20104;-73
2022/03/05 02:24:05;;;;;;;35.13;18.45;;;;;;;;;;5032682;28;20026;-73
2022/03/05 02:26:31;;;;;;;35.00;17.10;;;;;;;;;;5032181;28;20021;-74
2022/03/05 02:28:57;;;;;;;38.45;16.10;;;;;;;;;;5032073;28;20140;-73
2022/03/05 02:31:23;;;;;;;42.65;16.95;;;;;;;;;;5031891;28;20398;-73
2022/03/05 02:33:53;;;;;;;32.80;17.00;;;;;;;;;;5029800;28;20021;-74
2022/03/05 02:36:21;;;;;;;31.65;15.55;;;;;;;;;;5031582;28;20034;-73
2022/03/05 02:38:47;;;;;;;34.33;15.77;;;;;;;;;;5032374;28;20017;-74
2022/03/05 02:41:13;;;;;;;35.88;17.00;;;;;;;;;;5032250;28;20493;-74
2022/03/05 02:43:39;;;;;;;33.15;16.83;;;;;;;;;;5031938;28;20041;-75
2022/03/05 02:46:05;;;;;;;30.40;15.68;;;;;;;;;;5032124;28;20032;-74
2022/03/05 02:48:33;;;;;;;29.98;15.90;;;;;;;;;;5030853;28;20475;-77
2022/03/05 02:50:59;;;;;;;32.97;16.25;;;;;;;;;;5030347;28;20014;-73
2022/03/05 02:53:25;;;;;;;33.35;16.40;;;;;;;;;;5032065;28;20025;-74
2022/03/05 02:55:52;;;;;;;29.42;15.27;;;;;;;;;;5027036;28;20033;-77
2022/03/05 02:58:18;;;;;;;30.58;14.90;;;;;;;;;;5029275;28;20512;-73
2022/03/05 03:00:45;;;;;;;34.75;15.35;;;;;;;;;;5019997;28;20113;-77
2022/03/05 03:03:11;;;;;;;30.25;15.82;;;;;;;;;;5031151;28;20083;-77
2022/03/05 03:05:37;;;;;;;35.15;17.20;;;;;;;;;;5028117;28;20479;-75
2022/03/05 03:08:03;;;;;;;30.58;15.80;;;;;;;;;;5030060;28;20039;-74
2022/03/05 03:10:29;;;;;;;32.90;15.45;;;;;;;;;;5012711;28;20030;-74
2022/03/05 03:12:58;;;;;;;30.75;15.30;;;;;;;;;;5011736;28;20034;-74
2022/03/05 03:15:25;;;;;;;32.80;15.70;;;;;;;;;;5027799;28;20132;-74
2022/03/05 03:17:52;;;;;;;31.17;14.15;;;;;;;;;;5029380;28;20239;-74
2022/03/05 03:20:19;;;;;;;34.42;15.48;;;;;;;;;;5011665;28;20095;-74
2022/03/05 03:22:45;;;;;;;31.83;15.30;;;;;;;;;;5011983;28;20075;-74
2022/03/05 03:25:11;;;;;;;32.40;14.65;;;;;;;;;;5044625;28;20033;-74
2022/03/05 03:27:38;;;;;;;29.80;15.23;;;;;;;;;;5030563;28;20087;-74
2022/03/05 03:30:04;;;;;;;34.55;16.98;;;;;;;;;;5029611;28;20025;-73
2022/03/05 03:32:30;;;;;;;30.20;15.40;;;;;;;;;;5031764;28;20026;-73
2022/03/05 03:34:56;;;;;;;30.33;15.55;;;;;;;;;;5031299;28;20386;-74
2022/03/05 03:37:23;;;;;;;33.42;15.30;;;;;;;;;;5031392;28;20474;-73
2022/03/05 03:39:49;;;;;;;28.05;14.70;;;;;;;;;;5013316;28;20107;-74
2022/03/05 03:42:15;;;;;;;30.08;15.02;;;;;;;;;;5011380;28;20065;-73
2022/03/05 03:44:42;;;;;;;35.03;15.90;;;;;;;;;;5011624;28;20387;-75
2022/03/05 03:47:08;;;;;;;32.65;15.75;;;;;;;;;;5026697;28;20030;-76
2022/03/05 03:49:34;;;;;;;31.83;16.55;;;;;;;;;;5011630;28;20036;-78
2022/03/05 03:52:00;;;;;;;28.20;15.35;;;;;;;;;;5024048;28;20108;-77
2022/03/05 03:54:27;;;;;;;32.60;16.45;;;;;;;;;;5029428;28;20025;-75
2022/03/05 03:56:53;;;;;;;37.40;15.77;;;;;;;;;;5030728;28;20033;-78
2022/03/05 03:59:19;;;;;;;34.85;15.27;;;;;;;;;;5023622;28;20026;-77
2022/03/05 04:01:45;;;;;;;32.42;16.02;;;;;;;;;;5011675;28;20014;-75
2022/03/05 04:04:11;;;;;;;33.92;15.32;;;;;;;;;;5028797;28;20088;-74
2022/03/05 04:09:21;;;;;;;36.30;16.58;;;;;;;;;;5016598;28;20080;-74
2022/03/05 04:11:47;;;;;;;35.30;14.68;;;;;;;;;;5011510;28;20125;-74
2022/03/05 04:14:13;;;;;;;37.17;16.88;;;;;;;;;;5011349;28;20133;-75
2022/03/05 04:19:05;;;;;;;32.85;16.52;;;;;;;;;;5042644;22;20053;-74
2022/03/05 04:21:31;;;;;;;33.38;15.88;;;;;;;;;;5033602;28;20045;-74
2022/03/05 04:23:57;;;;;;;33.95;16.83;;;;;;;;;;5034715;28;20057;-74
2022/03/05 04:26:23;;;;;;;35.40;15.73;;;;;;;;;;5035176;28;20021;-75
2022/03/05 04:28:49;;;;;;;34.28;17.83;;;;;;;;;;5034558;28;20068;-74
2022/03/05 04:31:15;;;;;;;34.17;16.00;;;;;;;;;;5034793;28;20026;-74
2022/03/05 04:33:41;;;;;;;34.03;16.08;;;;;;;;;;5034078;28;20022;-74
2022/03/05 04:36:07;;;;;;;36.25;16.25;;;;;;;;;;5032267;28;20034;-75
2022/03/05 04:38:33;;;;;;;35.50;15.85;;;;;;;;;;5033804;28;20083;-73
2022/03/05 04:40:59;;;;;;;34.17;16.90;;;;;;;;;;5034163;28;20098;-74
2022/03/05 04:43:25;;;;;;;33.80;15.88;;;;;;;;;;5034611;28;20048;-74
2022/03/05 04:45:51;;;;;;;34.50;16.85;;;;;;;;;;5035587;28;20461;-74
2022/03/05 04:48:17;;;;;;;35.67;15.88;;;;;;;;;;5035915;28;20040;-74
2022/03/05 04:50:46;;;;;;;36.80;16.77;;;;;;;;;;5035219;28;20029;-74
2022/03/05 04:53:12;;;;;;;39.08;16.73;;;;;;;;;;5035249;28;20436;-74
2022/03/05 04:55:38;;;;;;;32.85;15.35;;;;;;;;;;5035296;28;20111;-74
2022/03/05 04:58:04;;;;;;;32.03;15.82;;;;;;;;;;5035522;28;20398;-74
2022/03/05 05:00:30;;;;;;;38.92;16.55;;;;;;;;;;5035201;28;20018;-73
2022/03/05 05:02:56;;;;;;;35.03;17.50;;;;;;;;;;5035342;28;20095;-73
2022/03/05 05:05:22;;;;;;;34.90;17.80;;;;;;;;;;5035150;28;20108;-73
2022/03/05 05:07:48;;;;;;;33.28;16.45;;;;;;;;;;5034883;28;20097;-73
2022/03/05 05:10:14;;;;;;;33.63;16.88;;;;;;;;;;5035130;28;20061;-73
2022/03/05 05:12:40;;;;;;;38.90;16.85;;;;;;;;;;5035081;28;20101;-72
2022/03/05 05:15:06;;;;;;;31.67;15.23;;;;;;;;;;5035109;28;20053;-73
2022/03/05 05:17:36;;;;;;;36.35;17.08;;;;;;;;;;5035655;28;20045;-73
2022/03/05 05:20:07;;;;;;;40.30;16.10;;;;;;;;;;5054834;28;20037;-73
2022/03/05 05:22:33;;;;;;;34.20;16.38;;;;;;;;;;5054768;28;20496;-74
2022/03/05 05:25:00;;;;;;;37.78;16.08;;;;;;;;;;5054888;28;20075;-74
2022/03/05 05:27:26;;;;;;;33.92;17.05;;;;;;;;;;5055042;28;20059;-73
2022/03/05 05:29:52;;;;;;;34.30;16.55;;;;;;;;;;5054295;28;20029;-74
2022/03/05 05:32:18;;;;;;;36.95;16.50;;;;;;;;;;5054686;28;20032;-73
2022/03/05 05:34:44;;;;;;;35.55;16.23;;;;;;;;;;5054527;28;20493;-73
2022/03/05 05:37:10;;;;;;;35.97;17.42;;;;;;;;;;5054178;28;20465;-73
2022/03/05 05:39:36;;;;;;;35.67;16.80;;;;;;;;;;5054575;28;20082;-75
2022/03/05 05:42:03;;;;;;;35.15;16.48;;;;;;;;;;5054523;28;20385;-74
2022/03/05 05:44:29;;;;;;;33.10;17.38;;;;;;;;;;5054636;28;20025;-74
2022/03/05 05:46:55;;;;;;;33.45;15.40;;;;;;;;;;5054308;28;20031;-74
2022/03/05 05:49:21;;;;;;;38.80;16.48;;;;;;;;;;5054429;28;20350;-73
2022/03/05 05:51:47;;;;;;;31.38;14.77;;;;;;;;;;5053898;28;20039;-73
2022/03/05 05:54:13;;;;;;;35.25;17.67;;;;;;;;;;5054337;28;20108;-73
2022/03/05 05:56:39;;;;;;;35.05;16.98;;;;;;;;;;5054051;28;20128;-74
2022/03/05 05:59:05;;;;;;;35.38;15.90;;;;;;;;;;5054335;28;20032;-74
2022/03/05 06:01:31;;;;;;;33.42;15.90;;;;;;;;;;5053950;28;20025;-73
2022/03/05 06:03:57;;;;;;;35.72;16.67;;;;;;;;;;5054144;28;20048;-74
2022/03/05 06:06:23;;;;;;;35.03;16.48;;;;;;;;;;5053993;28;20033;-74
2022/03/05 06:08:50;;;;;;;33.53;15.55;;;;;;;;;;5054065;28;20028;-74
2022/03/05 06:11:16;;;;;;;34.30;15.80;;;;;;;;;;5054107;28;20029;-74
2022/03/05 06:13:43;;;;;;;36.03;15.95;;;;;;;;;;5052788;28;20029;-73
2022/03/05 06:16:09;;;;;;;31.92;15.18;;;;;;;;;;5062210;22;20027;-74
2022/03/05 06:18:35;;;;;;;34.28;16.60;;;;;;;;;;5052554;28;20037;-73
2022/03/05 06:21:01;;;;;;;36.20;17.05;;;;;;;;;;5053350;28;20032;-74
2022/03/05 06:23:27;;;;;;;33.50;15.93;;;;;;;;;;5053909;28;20028;-74
2022/03/05 06:25:54;;;;;;;32.90;16.55;;;;;;;;;;5053742;28;20106;-74
2022/03/05 06:28:20;;;;;;;32.40;16.15;;;;;;;;;;5052284;28;20544;-74
2022/03/05 06:30:46;;;;;;;35.63;16.02;;;;;;;;;;5053543;28;20112;-74
2022/03/05 06:33:12;;;;;;;33.22;16.90;;;;;;;;;;5053726;28;20025;-74
2022/03/05 06:35:38;;;;;;;37.33;15.60;;;;;;;;;;5052750;28;20479;-74
2022/03/05 06:38:04;;;;;;;34.17;14.98;;;;;;;;;;5053589;28;20024;-74
2022/03/05 06:40:30;;;;;;;33.60;15.98;;;;;;;;;;5053373;28;20083;-75
2022/03/05 06:42:56;;;;;;;33.65;15.45;;;;;;;;;;5053372;28;20059;-74
2022/03/05 06:45:22;;;;;;;33.90;16.30;;;;;;;;;;5053447;28;20053;-74
2022/03/05 06:47:48;;;;;;;35.45;17.17;;;;;;;;;;5052150;28;20441;-73
2022/03/05 06:50:14;;;;;;;37.17;16.92;;;;;;;;;;5051896;28;20112;-74
2022/03/05 06:52:40;;;;;;;33.40;17.15;;;;;;;;;;5053097;28;20055;-74
2022/03/05 06:55:07;;;;;;;37.20;16.23;;;;;;;;;;5052008;28;20443;-74
2022/03/05 06:57:34;;;;;;;36.72;16.83;;;;;;;;;;5053065;28;20029;-74
2022/03/05 07:00:00;;;;;;;32.40;16.02;;;;;;;;;;5053018;28;20362;-73
2022/03/05 07:02:26;;;;;;;36.03;16.52;;;;;;;;;;5053124;28;20024;-73
2022/03/05 07:04:52;;;;;;;36.42;16.98;;;;;;;;;;5052849;28;20070;-74
2022/03/05 07:07:18;;;;;;;37.72;16.77;;;;;;;;;;5053033;28;20461;-74
2022/03/05 07:09:44;;;;;;;33.55;15.60;;;;;;;;;;5053166;28;20116;-74
2022/03/05 07:12:11;;;;;;;34.35;16.58;;;;;;;;;;5052816;28;20117;-74
2022/03/05 07:14:37;;;;;;;39.97;17.45;;;;;;;;;;5053056;28;20032;-74
2022/03/05 07:17:04;;;;;;;31.05;15.10;;;;;;;;;;5052358;28;20045;-75
2022/03/05 07:19:30;;;;;;;35.53;16.50;;;;;;;;;;5052527;28;20025;-75
2022/03/05 07:21:56;;;;;;;33.20;15.18;;;;;;;;;;5051338;28;20466;-76
2022/03/05 07:24:22;;;;;;;34.72;15.82;;;;;;;;;;5052932;28;20036;-75
2022/03/05 07:26:48;;;;;;;35.53;16.92;;;;;;;;;;5052503;28;20479;-74
2022/03/05 07:29:14;;;;;;;37.25;16.05;;;;;;;;;;5052659;28;20115;-76
2022/03/05 07:31:40;;;;;;;33.67;15.75;;;;;;;;;;5052723;28;20469;-75
2022/03/05 07:34:06;;;;;;;32.00;15.57;;;;;;;;;;5052284;28;20049;-74
2022/03/05 07:36:39;;;;;;;35.60;16.48;;;;;;;;;;5053905;28;20079;-75
2022/03/05 07:39:07;;;;;;;35.70;16.45;;;;;;;;;;5036014;28;20033;-74
2022/03/05 07:41:33;;;;;;;34.80;17.08;;;;;;;;;;5043908;28;20116;-74
2022/03/05 07:43:59;;;;;;;38.58;17.40;;;;;;;;;;5047083;28;20104;-75
2022/03/05 07:46:26;;;;;;;33.42;16.20;;;;;;;;;;5051388;28;20036;-74
2022/03/05 07:48:52;;;;;;;37.75;16.77;;;;;;;;;;5050692;28;20377;-75
2022/03/05 07:51:18;;;;;;;33.72;15.82;;;;;;;;;;5052029;28;20108;-75
2022/03/05 07:53:44;;;;;;;32.95;14.23;;;;;;;;;;5055258;28;20030;-75
2022/03/05 07:56:10;;;;;;;35.97;15.10;;;;;;;;;;5056301;28;20662;-75
2022/03/05 07:58:36;;;;;;;30.33;16.10;;;;;;;;;;5055877;28;20036;-74
2022/03/05 08:01:03;;;;;;;37.80;17.60;;;;;;;;;;5055580;28;20036;-76
2022/03/05 08:03:29;;;;;;;35.28;16.50;;;;;;;;;;5052872;28;20025;-75
2022/03/05 08:05:55;;;;;;;33.33;17.15;;;;;;;;;;5055584;28;20033;-75
2022/03/05 08:08:21;;;;;;;31.52;16.05;;;;;;;;;;5054609;28;20097;-75
2022/03/05 08:10:47;;;;;;;32.75;16.27;;;;;;;;;;5052404;28;20116;-75
2022/03/05 08:13:14;;;;;;;39.40;17.35;;;;;;;;;;5051267;28;20044;-74
2022/03/05 08:15:40;;;;;;;38.30;17.65;;;;;;;;;;5051485;28;20545;-72
2022/03/05 08:18:07;;;;;;;35.17;17.05;;;;;;;;;;5048641;28;20048;-72
2022/03/05 08:20:34;;;;;;;40.25;17.90;;;;;;;;;;5048817;28;20018;-72
2022/03/05 08:23:00;;;;;;;37.97;17.63;;;;;;;;;;5046446;28;20381;-72
2022/03/05 08:25:26;;;;;;;32.72;16.48;;;;;;;;;;5054850;28;20456;-72
2022/03/05 08:27:53;;;;;;;37.55;18.10;;;;;;;;;;5038921;28;20057;-73
2022/03/05 08:30:19;;;;;;;34.50;17.27;;;;;;;;;;5051976;28;20452;-72
2022/03/05 08:32:45;;;;;;;37.83;18.20;;;;;;;;;;5050004;28;20029;-73
2022/03/05 08:35:12;;;;;;;35.78;17.83;;;;;;;;;;5041633;28;20116;-73
2022/03/05 08:37:38;;;;;;;36.63;17.75;;;;;;;;;;5045678;28;20112;-74
2022/03/05 08:40:05;;;;;;;37.17;17.98;;;;;;;;;;5045309;28;20029;-74
2022/03/05 08:42:31;;;;;;;37.45;18.02;;;;;;;;;;5051035;28;20060;-74
2022/03/05 08:44:57;;;;;;;35.35;17.55;;;;;;;;;;5044146;28;20037;-74
2022/03/05 08:47:23;;;;;;;38.13;17.40;;;;;;;;;;5044527;28;20045;-74
2022/03/05 08:49:49;;;;;;;38.40;18.02;;;;;;;;;;5039777;28;20032;-74
2022/03/05 08:52:16;;;;;;;40.05;19.02;;;;;;;;;;5049337;28;20040;-74
2022/03/05 08:54:43;;;;;;;40.13;18.08;;;;;;;;;;5053655;28;20057;-74
2022/03/05 08:57:11;;;;;;;38.97;17.60;;;;;;;;;;5044664;28;20029;-74
2022/03/05 08:59:37;;;;;;;42.53;18.98;;;;;;;;;;5054161;28;20047;-74
2022/03/05 09:02:03;;;;;;;39.63;18.55;;;;;;;;;;5054279;28;20112;-74
2022/03/05 09:04:29;;;;;;;42.33;18.70;;;;;;;;;;5054460;28;20025;-74
2022/03/05 09:06:55;;;;;;;36.08;18.85;;;;;;;;;;5054861;28;20052;-73
2022/03/05 09:09:21;;;;;;;38.35;18.88;;;;;;;;;;5054951;28;20021;-74
2022/03/05 09:11:47;;;;;;;40.95;20.05;;;;;;;;;;5054946;28;20036;-74
2022/03/05 09:14:13;;;;;;;43.08;20.25;;;;;;;;;;5054657;28;20029;-74
2022/03/05 09:16:40;;;;;;;44.08;20.77;;;;;;;;;;5054598;28;20040;-75
2022/03/05 09:19:06;;;;;;;43.28;20.25;;;;;;;;;;5052949;28;20018;-74
2022/03/05 09:21:33;;;;;;;40.00;18.77;;;;;;;;;;5044632;28;20102;-73
2022/03/05 09:23:59;;;;;;;40.92;19.85;;;;;;;;;;5041735;28;20025;-74
2022/03/05 09:26:25;;;;;;;41.75;20.33;;;;;;;;;;5044068;28;20055;-74
2022/03/05 09:28:51;;;;;;;41.00;18.65;;;;;;;;;;5047062;28;20359;-74
2022/03/05 09:31:17;;;;;;;47.85;22.10;;;;;;;;;;5044717;28;20032;-74
2022/03/05 09:33:43;;;;;;;46.28;19.88;;;;;;;;;;5040857;28;20241;-74
2022/03/05 09:36:10;;;;;;;38.63;18.60;;;;;;;;;;5038352;28;20470;-74
2022/03/05 09:38:36;;;;;;;42.00;20.27;;;;;;;;;;5049497;28;20021;-74
2022/03/05 09:41:05;;;;;;;41.08;18.92;;;;;;;;;;5054387;28;20040;-75
2022/03/05 09:43:31;;;;;;;39.08;18.55;;;;;;;;;;5054286;28;20027;-75
2022/03/05 09:45:58;;;;;;;38.88;18.50;;;;;;;;;;5052811;28;20125;-74
2022/03/05 09:48:26;;;;;;;41.60;19.33;;;;;;;;;;5051974;28;20475;-75
2022/03/05 09:50:53;;;;;;;40.30;19.45;;;;;;;;;;5054465;28;20051;-74
2022/03/05 09:53:21;;;;;;;42.30;20.15;;;;;;;;;;5054444;28;20021;-74
2022/03/05 09:55:49;;;;;;;46.40;21.08;;;;;;;;;;5053781;28;20021;-75
2022/03/05 09:58:15;;;;;;;45.78;21.40;;;;;;;;;;5053996;28;20059;-74
2022/03/05 10:00:41;;;;;;;42.38;20.00;;;;;;;;;;5054182;28;20025;-74
2022/03/05 10:03:08;;;;;;;45.55;20.40;;;;;;;;;;5053289;28;20032;-74
2022/03/05 10:05:36;;;;;;;39.20;19.08;;;;;;;;;;5053906;28;20059;-74
2022/03/05 10:08:07;;;;;;;43.53;20.85;;;;;;;;;;5052576;28;20339;-74
2022/03/05 10:10:39;;;;;;;41.47;19.75;;;;;;;;;;5053420;28;20024;-74
2022/03/05 10:13:22;;;;;;;35.40;17.98;;;;;;;;;;5053697;28;20024;-73
2022/03/05 10:15:48;;;;;;;39.22;19.17;;;;;;;;;;5052518;28;20488;-74
2022/03/05 10:18:15;;;;;;;39.30;19.90;;;;;;;;;;5053333;28;20041;-74
2022/03/05 10:20:50;;;;;;;47.03;19.95;;;;;;;;;;5052415;28;20017;-74
2022/03/05 10:23:17;;;;;;;42.10;18.90;;;;;;;;;;5053772;28;20028;-74
2022/03/05 10:25:47;;;;;;;38.90;20.38;;;;;;;;;;5053731;28;20434;-74
2022/03/05 10:28:14;;;;;;;38.75;19.20;;;;;;;;;;5051662;28;20523;-74
2022/03/05 10:30:42;;;;;;;47.00;20.50;;;;;;;;;;5053657;28;20032;-74
2022/03/05 10:33:09;;;;;;;42.15;21.17;;;;;;;;;;5053451;28;20029;-74
2022/03/05 10:35:35;;;;;;;40.92;19.63;;;;;;;;;;5051734;28;20021;-74
2022/03/05 10:38:01;;;;;;;41.30;20.58;;;;;;;;;;5053346;28;20043;-74
2022/03/05 10:40:34;;;;;;;42.13;20.42;;;;;;;;;;5053232;28;20029;-74
2022/03/05 10:43:00;;;;;;;;;;;;;;;;;;5052822;28;20028;-74
2022/03/05 10:45:29;;;;;;;42.38;20.40;;;;;;;;;;5052113;28;19983;-74
2022/03/05 10:47:55;;;;;;;41.53;20.52;;;;;;;;;;5053342;28;20106;-74
2022/03/05 10:50:25;;;;;;;39.47;20.05;;;;;;;;;;5051546;28;20446;-74
2022/03/05 10:52:56;;;;;;;37.17;20.45;;;;;;;;;;5053181;28;20033;-73
2022/03/05 10:55:24;;;;;;;46.47;21.23;;;;;;;;;;5052258;28;20050;-73
2022/03/05 10:58:00;;;;;;;38.45;20.95;;;;;;;;;;5053011;28;20566;-73
2022/03/05 11:00:27;;;;;;;39.63;20.42;;;;;;;;;;5053104;28;20170;-74
2022/03/05 11:02:55;;;;;;;42.45;20.65;;;;;;;;;;5052794;28;20523;-75
2022/03/05 11:05:22;;;;;;;40.25;20.38;;;;;;;;;;5052621;28;20108;-74
2022/03/05 11:07:51;;;;;;;45.22;22.13;;;;;;;;;;5051516;28;20087;-77
2022/03/05 11:10:18;;;;;;;45.10;19.70;;;;;;;;;;5052216;28;20021;-75
2022/03/05 11:12:51;;;;;;;41.78;20.00;;;;;;;;;;5052241;28;20442;-74
2022/03/05 11:15:18;;;;;;;43.90;20.40;;;;;;;;;;5052271;28;20100;-74
2022/03/05 11:17:44;;;;;;;44.83;21.98;;;;;;;;;;5051961;28;20041;-74
2022/03/05 11:20:10;;;;;;;43.30;21.13;;;;;;;;;;5052688;28;20064;-73
2022/03/05 11:22:36;;;;;;;42.83;21.17;;;;;;;;;;5051733;28;20029;-75
2022/03/05 11:25:02;;;;;;;40.72;21.48;;;;;;;;;;5052562;28;20049;-77
2022/03/05 11:27:30;;;;;;;45.17;22.70;;;;;;;;;;5051929;28;20032;-75
2022/03/05 11:30:00;;;;;;;37.17;19.17;;;;;;;;;;5052543;28;20373;-74
2022/03/05 11:32:30;;;;;;;38.88;20.52;;;;;;;;;;5048897;28;20083;-74
2022/03/05 11:34:56;;;;;;;39.38;20.88;;;;;;;;;;5051701;28;20025;-75
2022/03/05 11:37:25;;;;;;;38.88;19.63;;;;;;;;;;5051957;28;20195;-74
2022/03/05 11:39:51;;;;;;;39.63;20.95;;;;;;;;;;5052151;28;20057;-74
2022/03/05 11:42:27;;;;;;;39.90;20.92;;;;;;;;;;5034149;28;20474;-74
2022/03/05 11:44:53;;;;;;;40.13;20.90;;;;;;;;;;5032669;28;20466;-74
2022/03/05 11:47:19;;;;;;;41.42;20.20;;;;;;;;;;5031286;28;20464;-74
2022/03/05 11:50:00;;;;;;;39.88;20.63;;;;;;;;;;5032244;28;20026;-74
2022/03/05 11:52:38;;;;;;;36.65;19.58;;;;;;;;;;5035074;28;20064;-76
2022/03/05 11:55:18;;;;;;;38.78;20.25;;;;;;;;;;5042987;28;20104;-75
2022/03/05 11:57:53;;;;;;;40.92;19.67;;;;;;;;;;5049189;28;20033;-74
2022/03/05 12:00:25;;;;;;;35.33;19.17;;;;;;;;;;5052455;28;20029;-75
2022/03/05 12:02:54;;;;;;;39.92;20.58;;;;;;;;;;5045912;28;20080;-73
2022/03/05 12:05:38;;;;;;;40.92;20.02;;;;;;;;;;5040620;28;20116;-73
2022/03/05 12:08:09;;;;;;;38.17;19.08;;;;;;;;;;5033728;28;20040;-74
2022/03/05 12:10:35;;;;;;;36.78;19.33;;;;;;;;;;5048825;28;20025;-74
2022/03/05 12:13:03;;;;;;;34.00;18.38;;;;;;;;;;5047927;28;20063;-73
2022/03/05 12:15:36;;;;;;;38.03;18.77;;;;;;;;;;5050905;28;20530;-73
2022/03/05 12:18:02;;;;;;;;;;;;;;;;;;5050246;28;20036;-74
2022/03/05 12:20:31;;;;;;;32.47;17.63;;;;;;;;;;5052294;28;19913;-74
2022/03/05 12:23:00;;;;;;;31.23;17.08;;;;;;;;;;5051905;28;20029;-75
2022/03/05 12:25:27;;;;;;;32.88;17.05;;;;;;;;;;5052219;28;20032;-73
2022/03/05 12:27:53;;;;;;;30.48;15.88;;;;;;;;;;5052065;28;20389;-74
2022/03/05 12:30:24;;;;;;;36.55;18.80;;;;;;;;;;5052244;28;20485;-74
2022/03/05 12:32:53;;;;;;;35.38;19.23;;;;;;;;;;5051117;28;20020;-74
2022/03/05 12:35:21;;;;;;;37.28;20.00;;;;;;;;;;5051922;28;20025;-73
2022/03/05 12:37:47;;;;;;;34.38;18.77;;;;;;;;;;5051703;28;20051;-72
2022/03/05 12:40:13;;;;;;;30.42;17.00;;;;;;;;;;5054318;28;20513;-74
2022/03/05 12:42:44;;;;;;;27.55;15.27;;;;;;;;;;5055810;28;20033;-74
2022/03/05 12:45:20;;;;;;;32.90;15.77;;;;;;;;;;5055806;28;20048;-74
2022/03/05 12:47:46;;;;;;;27.92;15.82;;;;;;;;;;5055714;28;20028;-73
2022/03/05 12:50:28;;;;;;;29.55;15.38;;;;;;;;;;5055963;28;20104;-74
2022/03/05 12:53:00;;;;;;;29.00;14.95;;;;;;;;;;5055331;28;20032;-74
2022/03/05 12:55:30;;;;;;;28.60;16.67;;;;;;;;;;5055534;28;20029;-74
2022/03/05 12:58:03;;;;;;;27.10;14.65;;;;;;;;;;5055405;28;20043;-73
2022/03/05 13:00:30;;;;;;;31.10;14.27;;;;;;;;;;5055177;28;20075;-75
2022/03/05 13:02:56;;;;;;;26.38;14.13;;;;;;;;;;5055460;28;20025;-74
2022/03/05 13:05:22;;;;;;;23.50;12.93;;;;;;;;;;5053753;28;20036;-74
2022/03/05 13:07:48;;;;;;;55.10;16.25;;;;;;;;;;5054985;28;20112;-75
2022/03/05 13:10:16;;;;;;;26.58;13.77;;;;;;;;;;5054904;28;20553;-73
2022/03/05 13:12:42;;;;;;;23.38;12.85;;;;;;;;;;5053690;28;20021;-74
2022/03/05 13:15:08;;;;;;;26.40;14.43;;;;;;;;;;5054947;28;20029;-74
2022/03/05 13:17:34;;;;;;;22.83;12.88;;;;;;;;;;5054893;28;20064;-74
2022/03/05 13:20:05;;;;;;;17.83;9.20;;;;;;;;;;5054675;28;20033;-74
2022/03/05 13:22:31;;;;;;;18.85;10.07;;;;;;;;;;5054707;28;20024;-74
2022/03/05 13:24:57;;;;;;;16.38;10.07;;;;;;;;;;5054696;28;20419;-75
2022/03/05 13:27:26;;;;;;;15.90;8.00;;;;;;;;;;5054911;28;20035;-74
2022/03/05 13:29:53;;;;;;;17.63;9.70;;;;;;;;;;5054269;28;20033;-74
2022/03/05 13:32:19;;;;;;;21.25;11.27;;;;;;;;;;5054763;28;20025;-74
2022/03/05 13:34:45;;;;;;;32.17;17.60;;;;;;;;;;5054456;28;20056;-74
2022/03/05 13:37:11;;;;;;;24.67;13.63;;;;;;;;;;5054664;28;20037;-76
2022/03/05 13:39:38;;;;;;;27.17;15.73;;;;;;;;;;5054660;28;20029;-75
2022/03/05 13:42:12;;;;;;;22.40;13.63;;;;;;;;;;5054618;28;20049;-74
2022/03/05 13:44:39;;;;;;;19.25;10.20;;;;;;;;;;5054565;28;20052;-74
2022/03/05 13:47:08;;;;;;;26.58;13.65;;;;;;;;;;5054221;28;20499;-74
2022/03/05 13:49:34;;;;;;;23.55;13.57;;;;;;;;;;5054397;28;20069;-74
2022/03/05 13:52:01;;;;;;;25.42;13.63;;;;;;;;;;5054291;28;20028;-74
2022/03/05 13:54:34;;;;;;;18.35;11.00;;;;;;;;;;5054277;28;20107;-75
2022/03/05 13:57:01;;;;;;;18.20;9.48;;;;;;;;;;5054084;28;20033;-74
2022/03/05 13:59:43;;;;;;;19.70;9.57;;;;;;;;;;5054287;28;20021;-73
2022/03/05 14:02:11;;;;;;;17.98;9.13;;;;;;;;;;5054413;28;20027;-73
2022/03/05 14:04:59;;;;;;;19.55;9.85;;;;;;;;;;5054001;28;20048;-73
2022/03/05 14:07:25;;;;;;;15.90;8.10;;;;;;;;;;5052637;28;20025;-74
2022/03/05 14:09:51;;;;;;;16.23;8.65;;;;;;;;;;5054090;28;20025;-74
2022/03/05 14:12:24;;;;;;;15.15;7.53;;;;;;;;;;5054166;28;20078;-74
2022/03/05 14:14:51;;;;;;;16.08;9.38;;;;;;;;;;5052706;28;20488;-73
2022/03/05 14:17:29;;;;;;;20.08;9.80;;;;;;;;;;5053131;28;20374;-75
2022/03/05 14:20:02;;;;;;;21.83;11.00;;;;;;;;;;5053905;28;20394;-75
2022/03/05 14:22:34;;;;;;;19.88;10.60;;;;;;;;;;5053725;28;20083;-73